Impacts TAF Board
For situational awareness. Not to be used for flight planning purposes.
IDs:

KATL - Atlanta/Hartsfield I, GA, US

Issued at 1401 UTC 10 Aug 2022
Updated at 1457 UTC 10 Aug 2022
Potential Impact None Slight Moderate High
Time1452Z 10/15Z 10/16Z 10/17Z 10/18Z 10/19Z 10/20Z 10/21Z 10/22Z 10/23Z 11/00Z 11/01Z 11/02Z 11/03Z>>
Type OBS PRVL PRVL PRVL PRVL PRVL PRVL
  [TEMP]  
PRVL
  [TEMP]  
PRVL
  [TEMP]  
PRVL
  [TEMP]  
PRVL PRVL PRVL PRVL
VIS 10 >6 >6 >6 >6 >6 >6
  [4]  
>6
  [4]  
>6
  [4]  
>6
  [4]  
>6 >6 >6 >6
CIG 150 6 35 35 35 35 35
  [25]  
35
  [25]  
35
  [25]  
35
  [25]  
35 35 35 35
Cover BKN BKN BKN BKN BKN BKN BKN
  [BKN]  
BKN
  [BKN]  
BKN
  [BKN]  
BKN
  [BKN]  
BKN BKN BKN BKN
FltCat VFR IFR VFR VFR VFR VFR VFR
  [MVFR]  
VFR
  [MVFR]  
VFR
  [MVFR]  
VFR
  [MVFR]  
VFR VFR VFR VFR
WX -- -- VCSH VCSH VCSH VCSH VCSH
  [TSRA BR]  
VCSH
  [TSRA BR]  
VCSH
  [TSRA BR]  
VCSH
  [TSRA BR]  
VCSH VCSH VCSH VCSH
WDir 230 250 240 240 240 240 240
[VRB]
240
[VRB]
240
[VRB]
240
[VRB]
240 240 240 240
WSpd 5 7 6 6 6 6 6
  [15]  
6
  [15]  
6
  [15]  
6
  [15]  
6 6 6 6
WGst -- -- -- -- -- -- --
  [25]  
--
  [25]  
--
  [25]  
--
  [25]  
-- -- -- --
WSHgt -- -- -- -- -- -- --
[--]
--
[--]
--
[--]
--
[--]
-- -- -- --
WSDir -- -- -- -- -- -- --
[--]
--
[--]
--
[--]
--
[--]
-- -- -- --
WSSpd -- -- -- -- -- -- --
[--]
--
[--]
--
[--]
--
[--]
-- -- -- --
Raw TAF
KATL 101401Z 1014/1118 25007KT P6SM BKN006
  FM101600 24006KT P6SM VCSH FEW015 BKN035
  TEMPO 1020/1024 VRB15G25KT 4SM TSRA BR BKN025CB
  FM110700 24003KT P6SM SCT030 BKN090
  FM111400 26005KT P6SM SCT012 BKN030


Raw METAR
KATL 101452Z 23005KT 10SM SCT012 BKN150 BKN200 BKN250 25/22 A3022 RMK AO2 SLP226 T02500222 53004
KATL 101352Z 27005KT 10SM SCT006 SCT140 BKN200 BKN250 23/22 A3022 RMK AO2 SLP224 T02330217
KATL 101252Z 25007KT 10SM FEW006 FEW040 SCT150 BKN200 BKN250 23/21 A3021 RMK AO2 SLP222 SHRA NE T02280211
KATL 101152Z 24005KT 10SM FEW005 SCT055 SCT090 BKN130 22/21 A3021 RMK AO2 RAE02 SLP221 SHRA NW-N P0000 60000 70119 T02220211 10228 20217 53010

METAR Board
Radar Display
Forecast Discussion
For situational awareness. Not to be used for flight planning purposes.